createdAt,value
2019-03-29T00:00:07.295Z,57.90
2019-03-29T00:01:07.237Z,48.90
2019-03-29T00:02:07.147Z,62.80
2019-03-29T00:03:07.047Z,62.60
2019-03-29T00:04:06.970Z,68.30
2019-03-29T00:05:06.887Z,61.90
2019-03-29T00:06:06.797Z,45.40
2019-03-29T00:07:06.720Z,65.80
2019-03-29T00:08:06.637Z,61.20
2019-03-29T00:09:06.559Z,59.20
2019-03-29T00:10:06.471Z,53.50
2019-03-29T00:11:06.389Z,60.60
2019-03-29T00:12:06.321Z,53.80
2019-03-29T00:13:06.221Z,68.40
2019-03-29T00:14:06.137Z,57.00
2019-03-29T00:15:06.060Z,60.50
2019-03-29T00:16:05.977Z,58.70
2019-03-29T00:17:05.889Z,56.60
2019-03-29T00:18:05.813Z,52.20
2019-03-29T00:19:05.722Z,59.70
2019-03-29T00:20:06.308Z,62.20
2019-03-29T00:21:05.561Z,59.00
2019-03-29T00:22:05.474Z,61.20
2019-03-29T00:23:05.397Z,63.40
2019-03-29T00:24:07.073Z,70.40
2019-03-29T00:25:05.222Z,69.40
2019-03-29T00:26:05.148Z,64.70
2019-03-29T00:27:05.069Z,65.40
2019-03-29T00:28:04.973Z,62.80
2019-03-29T00:29:04.901Z,68.90
2019-03-29T00:30:04.811Z,68.40
2019-03-29T00:31:04.724Z,63.80
2019-03-29T00:32:05.916Z,62.00
2019-03-29T00:33:04.561Z,59.30
2019-03-29T00:34:04.487Z,61.70
2019-03-29T00:35:04.399Z,69.10
2019-03-29T00:36:04.312Z,66.50
2019-03-29T00:37:04.225Z,77.10
2019-03-29T00:38:04.150Z,61.40
2019-03-29T00:39:04.062Z,70.50
2019-03-29T00:40:03.988Z,78.30
2019-03-29T00:41:03.899Z,77.80
2019-03-29T00:42:03.812Z,76.40
2019-03-29T00:43:03.741Z,60.40
2019-03-29T00:44:03.650Z,67.00
2019-03-29T00:45:03.563Z,64.00
2019-03-29T00:46:03.487Z,68.00
2019-03-29T00:47:04.047Z,69.00
2019-03-29T00:48:03.313Z,77.60
2019-03-29T00:49:03.239Z,68.30
2019-03-29T00:50:03.151Z,74.80
2019-03-29T00:51:03.070Z,69.00
2019-03-29T00:52:02.989Z,64.40
2019-03-29T00:53:02.902Z,70.20
2019-03-29T00:54:02.826Z,67.80
2019-03-29T00:55:02.739Z,75.10
2019-03-29T00:56:02.651Z,65.60
2019-03-29T00:57:02.576Z,70.60
2019-03-29T00:58:02.489Z,89.40
2019-03-29T00:59:02.403Z,73.40
2019-03-29T01:00:02.328Z,74.80
2019-03-29T01:01:02.245Z,73.00
2019-03-29T01:02:02.152Z,63.00
2019-03-29T01:03:02.076Z,64.60
2019-03-29T01:04:02.920Z,76.10
2019-03-29T01:05:01.903Z,75.50
2019-03-29T01:06:01.827Z,75.20
2019-03-29T01:07:01.739Z,87.40
2019-03-29T01:08:07.714Z,78.90
2019-03-29T01:09:01.579Z,92.50
2019-03-29T01:10:01.494Z,82.00
2019-03-29T01:11:01.404Z,71.30
2019-03-29T01:12:01.328Z,66.20
2019-03-29T01:13:01.243Z,78.90
2019-03-29T01:14:01.168Z,70.00
2019-03-29T01:15:01.080Z,90.90
2019-03-29T01:16:01.172Z,77.80
2019-03-29T01:17:00.908Z,73.80
2019-03-29T01:18:00.828Z,67.40
2019-03-29T01:19:00.742Z,72.50
2019-03-29T01:20:00.657Z,79.10
2019-03-29T01:21:00.579Z,67.60
2019-03-29T01:22:00.494Z,56.40
2019-03-29T01:23:00.417Z,81.10
2019-03-29T01:24:00.329Z,54.00
2019-03-29T01:25:00.408Z,60.60
2019-03-29T01:26:01.026Z,57.80
2019-03-29T01:27:00.095Z,61.80
2019-03-29T01:27:59.993Z,65.90
2019-03-29T01:28:59.918Z,77.40
2019-03-29T01:29:59.846Z,73.70
2019-03-29T01:30:59.745Z,73.80
2019-03-29T01:31:59.667Z,84.50
2019-03-29T01:32:59.581Z,69.00
2019-03-29T01:33:59.505Z,85.40
2019-03-29T01:34:59.419Z,78.60
2019-03-29T01:35:59.344Z,82.90
2019-03-29T01:36:59.244Z,83.00
2019-03-29T01:37:59.169Z,78.40
2019-03-29T01:38:59.081Z,85.30
2019-03-29T01:39:58.994Z,69.40
2019-03-29T01:40:58.920Z,80.60
2019-03-29T01:41:58.832Z,74.50
2019-03-29T01:42:58.749Z,72.90
2019-03-29T01:43:58.670Z,74.60
2019-03-29T01:44:58.582Z,73.30
2019-03-29T01:45:58.508Z,62.70
2019-03-29T01:46:58.423Z,62.20
2019-03-29T01:47:58.333Z,73.70
2019-03-29T01:48:58.245Z,70.00
2019-03-29T01:49:58.173Z,69.40
2019-03-29T01:50:58.129Z,76.30
2019-03-29T01:51:57.996Z,78.10
2019-03-29T01:52:57.921Z,60.00
2019-03-29T01:53:57.832Z,75.00
2019-03-29T01:54:57.746Z,71.40
2019-03-29T01:55:57.672Z,76.40
2019-03-29T01:56:57.599Z,52.60
2019-03-29T01:57:58.310Z,77.20
2019-03-29T01:58:57.424Z,91.10
2019-03-29T01:59:57.333Z,72.90
2019-03-29T02:00:57.247Z,61.60
2019-03-29T02:01:57.173Z,79.30
2019-03-29T02:02:57.084Z,69.70
2019-03-29T02:03:56.998Z,74.70
2019-03-29T02:04:56.923Z,76.20
2019-03-29T02:05:56.835Z,69.00
2019-03-29T02:06:56.749Z,71.40
2019-03-29T02:07:56.675Z,74.70
2019-03-29T02:08:56.588Z,70.20
2019-03-29T02:09:56.901Z,72.80
2019-03-29T02:10:56.423Z,57.70
2019-03-29T02:11:56.334Z,70.10
2019-03-29T02:12:56.252Z,70.40
2019-03-29T02:13:56.176Z,79.60
2019-03-29T02:14:56.086Z,71.30
2019-03-29T02:15:55.999Z,72.00
2019-03-29T02:16:56.052Z,78.70
2019-03-29T02:17:55.835Z,91.90
2019-03-29T02:18:55.749Z,79.10
2019-03-29T02:19:55.675Z,90.80
2019-03-29T02:20:55.586Z,96.60
2019-03-29T02:21:55.510Z,105.30
2019-03-29T02:22:55.424Z,102.30
2019-03-29T02:23:55.451Z,88.70
2019-03-29T02:24:55.275Z,85.50
2019-03-29T02:25:55.176Z,95.10
2019-03-29T02:26:55.087Z,81.10
2019-03-29T02:27:55.012Z,85.70
2019-03-29T02:28:54.925Z,82.30
2019-03-29T02:29:54.840Z,81.50
2019-03-29T02:30:54.774Z,88.20
2019-03-29T02:31:56.355Z,90.70
2019-03-29T02:32:54.590Z,85.90
2019-03-29T02:33:54.513Z,94.30
2019-03-29T02:34:54.428Z,90.40
2019-03-29T02:35:54.338Z,103.10
2019-03-29T02:36:54.264Z,107.00
2019-03-29T02:37:54.267Z,117.90
2019-03-29T02:38:55.987Z,105.00
2019-03-29T02:39:54.907Z,102.50
2019-03-29T02:40:53.932Z,110.00
2019-03-29T02:41:53.841Z,111.20
2019-03-29T02:42:53.763Z,106.50
2019-03-29T02:43:53.676Z,119.90
2019-03-29T02:44:53.603Z,136.50
2019-03-29T02:45:53.514Z,147.80
2019-03-29T02:46:53.861Z,115.40
2019-03-29T02:47:53.354Z,112.40
2019-03-29T02:48:53.264Z,135.90
2019-03-29T02:49:53.189Z,131.30
2019-03-29T02:50:53.106Z,107.40
2019-03-29T02:51:53.025Z,105.10
2019-03-29T02:52:52.939Z,133.00
2019-03-29T02:53:52.854Z,137.30
2019-03-29T02:54:52.765Z,119.00
2019-03-29T02:55:52.685Z,107.80
2019-03-29T02:56:52.605Z,123.70
2019-03-29T02:57:52.518Z,133.10
2019-03-29T02:58:52.442Z,123.40
2019-03-29T02:59:52.355Z,141.70
2019-03-29T03:00:52.267Z,134.90
2019-03-29T03:01:52.190Z,141.40
2019-03-29T03:02:52.105Z,125.60
2019-03-29T03:03:52.017Z,138.60
2019-03-29T03:04:51.946Z,102.40
2019-03-29T03:05:51.856Z,119.80
2019-03-29T03:06:51.769Z,116.40
2019-03-29T03:07:51.693Z,133.20
2019-03-29T03:08:51.604Z,146.20
2019-03-29T03:09:51.518Z,136.20
2019-03-29T03:10:51.443Z,134.70
2019-03-29T03:11:51.359Z,128.90
2019-03-29T03:12:51.281Z,134.60
2019-03-29T03:13:51.197Z,139.60
2019-03-29T03:14:51.105Z,148.20
2019-03-29T03:15:51.020Z,145.40
2019-03-29T03:16:50.942Z,143.60
2019-03-29T03:17:50.867Z,133.40
2019-03-29T03:18:50.789Z,131.80
2019-03-29T03:19:50.696Z,133.40
2019-03-29T03:20:50.648Z,123.80
2019-03-29T03:21:50.533Z,139.70
2019-03-29T03:22:50.443Z,117.80
2019-03-29T03:23:50.375Z,121.40
2019-03-29T03:24:50.286Z,117.00
2019-03-29T03:25:50.195Z,129.30
2019-03-29T03:26:50.108Z,135.40
2019-03-29T03:27:50.039Z,128.50
2019-03-29T03:28:49.952Z,114.50
2019-03-29T03:29:49.858Z,120.80
2019-03-29T03:30:49.871Z,120.10
2019-03-29T03:31:49.695Z,109.90
2019-03-29T03:32:49.636Z,134.50
2019-03-29T03:33:49.536Z,117.60
2019-03-29T03:34:49.445Z,164.30
2019-03-29T03:35:49.371Z,111.50
2019-03-29T03:36:49.284Z,154.40
2019-03-29T03:37:49.196Z,111.00
2019-03-29T03:38:49.126Z,117.00
2019-03-29T03:39:49.037Z,115.20
2019-03-29T03:40:48.959Z,118.10
2019-03-29T03:41:48.872Z,109.00
2019-03-29T03:42:48.789Z,138.20
2019-03-29T03:43:48.701Z,136.50
2019-03-29T03:44:48.622Z,129.10
2019-03-29T03:45:48.539Z,121.80
2019-03-29T03:46:48.460Z,118.60
2019-03-29T03:47:48.371Z,127.10
2019-03-29T03:48:48.284Z,107.90
2019-03-29T03:49:48.198Z,127.60
2019-03-29T03:50:48.122Z,143.20
2019-03-29T03:51:48.036Z,123.00
2019-03-29T03:52:47.960Z,118.90
2019-03-29T03:53:47.872Z,126.30
2019-03-29T03:54:47.785Z,137.00
2019-03-29T03:55:47.718Z,145.40
2019-03-29T03:56:47.624Z,137.90
2019-03-29T03:57:47.541Z,125.50
2019-03-29T03:58:47.463Z,139.90
2019-03-29T03:59:47.373Z,118.50
2019-03-29T04:00:47.286Z,117.10
2019-03-29T04:01:47.213Z,124.30
2019-03-29T04:02:47.126Z,124.70
2019-03-29T04:03:47.037Z,135.00
2019-03-29T04:04:46.969Z,152.90
2019-03-29T04:05:46.877Z,128.50
2019-03-29T04:06:46.799Z,158.30
2019-03-29T04:07:46.713Z,127.10
2019-03-29T04:08:46.625Z,126.60
2019-03-29T04:09:49.946Z,135.40
2019-03-29T04:10:46.462Z,116.00
2019-03-29T04:11:46.433Z,132.70
2019-03-29T04:12:46.298Z,139.20
2019-03-29T04:13:46.214Z,132.00
2019-03-29T04:14:46.133Z,128.30
2019-03-29T04:15:46.065Z,139.00
2019-03-29T04:16:45.963Z,115.60
2019-03-29T04:17:45.887Z,118.90
2019-03-29T04:18:45.806Z,152.40
2019-03-29T04:19:45.712Z,139.80
2019-03-29T04:20:45.627Z,131.40
2019-03-29T04:21:45.554Z,115.10
2019-03-29T04:22:45.469Z,132.00
2019-03-29T04:23:45.379Z,140.80
2019-03-29T04:24:45.303Z,128.60
2019-03-29T04:25:45.220Z,132.60
2019-03-29T04:26:45.141Z,134.70
2019-03-29T04:27:45.056Z,116.40
2019-03-29T04:28:44.965Z,112.60
2019-03-29T04:29:44.889Z,141.50
2019-03-29T04:30:44.805Z,140.80
2019-03-29T04:31:44.715Z,124.70
2019-03-29T04:32:44.645Z,149.50
2019-03-29T04:33:44.554Z,122.00
2019-03-29T04:34:44.531Z,119.90
2019-03-29T04:35:44.390Z,137.10
2019-03-29T04:36:44.302Z,128.80
2019-03-29T04:37:44.216Z,138.90
2019-03-29T04:38:44.141Z,135.50
2019-03-29T04:39:44.053Z,108.30
2019-03-29T04:40:43.965Z,114.30
2019-03-29T04:41:43.891Z,132.60
2019-03-29T04:42:43.803Z,127.50
2019-03-29T04:43:43.729Z,139.90
2019-03-29T04:44:43.640Z,136.30
2019-03-29T04:45:43.557Z,151.00
2019-03-29T04:46:43.478Z,122.80
2019-03-29T04:47:43.391Z,115.50
2019-03-29T04:48:43.304Z,127.00
2019-03-29T04:49:43.230Z,155.00
2019-03-29T04:50:43.141Z,128.10
2019-03-29T04:51:43.053Z,145.60
2019-03-29T04:52:42.992Z,135.10
2019-03-29T04:53:42.891Z,130.60
2019-03-29T04:54:42.804Z,121.10
2019-03-29T04:55:42.729Z,130.90
2019-03-29T04:56:42.643Z,146.20
2019-03-29T04:57:42.556Z,131.30
2019-03-29T04:58:42.492Z,115.80
2019-03-29T04:59:42.393Z,129.10
2019-03-29T05:00:42.316Z,134.40
2019-03-29T05:01:42.229Z,129.20
2019-03-29T05:02:42.143Z,140.40
2019-03-29T05:03:42.066Z,141.90
2019-03-29T05:04:41.984Z,126.10
2019-03-29T05:05:41.896Z,136.80
2019-03-29T05:06:41.820Z,142.20
2019-03-29T05:07:41.730Z,143.60
2019-03-29T05:08:41.643Z,138.40
2019-03-29T05:09:41.568Z,122.40
2019-03-29T05:10:41.484Z,132.60
2019-03-29T05:11:41.393Z,140.40
2019-03-29T05:12:41.324Z,114.50
2019-03-29T05:13:41.230Z,136.50
2019-03-29T05:14:41.144Z,133.10
2019-03-29T05:15:41.068Z,143.20
2019-03-29T05:16:40.995Z,114.40
2019-03-29T05:17:40.977Z,136.00
2019-03-29T05:18:40.821Z,107.10
2019-03-29T05:19:40.731Z,145.00
2019-03-29T05:20:40.657Z,144.60
2019-03-29T05:21:40.570Z,133.80
2019-03-29T05:22:40.481Z,121.90
2019-03-29T05:23:40.405Z,137.30
2019-03-29T05:24:40.320Z,137.60
2019-03-29T05:25:40.231Z,141.40
2019-03-29T05:26:40.156Z,151.50
2019-03-29T05:27:40.070Z,123.50
2019-03-29T05:28:39.982Z,128.60
2019-03-29T05:29:39.909Z,145.80
2019-03-29T05:30:39.820Z,139.30
2019-03-29T05:31:39.733Z,129.40
2019-03-29T05:32:39.657Z,130.50
2019-03-29T05:33:39.582Z,131.00
2019-03-29T05:34:39.495Z,142.40
2019-03-29T05:35:39.409Z,130.80
2019-03-29T05:36:39.322Z,131.20
2019-03-29T05:37:39.246Z,133.10
2019-03-29T05:38:39.162Z,142.80
2019-03-29T05:39:39.072Z,131.90
2019-03-29T05:40:38.996Z,137.00
2019-03-29T05:41:38.911Z,135.60
2019-03-29T05:42:38.822Z,130.20
2019-03-29T05:43:38.747Z,117.80
2019-03-29T05:44:40.834Z,124.10
2019-03-29T05:45:38.586Z,143.00
2019-03-29T05:46:38.502Z,128.90
2019-03-29T05:47:38.416Z,116.20
2019-03-29T05:48:38.335Z,121.80
2019-03-29T05:49:38.247Z,126.00
2019-03-29T05:50:38.173Z,128.00
2019-03-29T05:51:38.089Z,139.60
2019-03-29T05:52:38.000Z,128.20
2019-03-29T05:53:37.911Z,129.10
2019-03-29T05:54:37.835Z,127.20
2019-03-29T05:55:37.751Z,129.70
2019-03-29T05:56:37.673Z,128.30
2019-03-29T05:57:37.586Z,121.70
2019-03-29T05:58:37.502Z,113.30
2019-03-29T05:59:37.424Z,124.20
2019-03-29T06:00:37.339Z,112.30
2019-03-29T06:01:37.268Z,115.90
2019-03-29T06:02:37.189Z,117.70
2019-03-29T06:03:37.098Z,124.70
2019-03-29T06:04:37.011Z,128.30
2019-03-29T06:05:36.927Z,125.40
2019-03-29T06:06:36.843Z,119.30
2019-03-29T06:07:36.761Z,117.20
2019-03-29T06:08:36.675Z,115.20
2019-03-29T06:09:36.588Z,120.20
2019-03-29T06:10:48.363Z,125.90
2019-03-29T06:11:36.501Z,118.10
2019-03-29T06:12:36.352Z,121.40
2019-03-29T06:13:36.264Z,118.30
2019-03-29T06:14:36.180Z,113.30
2019-03-29T06:15:36.100Z,113.50
2019-03-29T06:16:39.182Z,115.50
2019-03-29T06:17:47.894Z,113.70
2019-03-29T06:18:35.850Z,119.30
2019-03-29T06:19:35.762Z,112.10
2019-03-29T06:20:35.688Z,110.40
2019-03-29T06:21:35.606Z,109.20
2019-03-29T06:22:35.514Z,100.40
2019-03-29T06:23:35.439Z,101.20
2019-03-29T06:24:35.351Z,111.20
2019-03-29T06:25:35.277Z,108.40
2019-03-29T06:26:35.188Z,100.80
2019-03-29T06:27:35.101Z,103.10
2019-03-29T06:28:35.027Z,104.40
2019-03-29T06:29:34.939Z,115.00
2019-03-29T06:30:34.865Z,95.40
2019-03-29T06:31:34.781Z,101.50
2019-03-29T06:32:34.689Z,96.20
2019-03-29T06:33:34.617Z,98.10
2019-03-29T06:34:34.542Z,91.20
2019-03-29T06:35:34.440Z,88.20
2019-03-29T06:36:34.368Z,99.80
2019-03-29T06:37:34.278Z,98.90
2019-03-29T06:38:34.203Z,90.80
2019-03-29T06:39:34.114Z,88.80
2019-03-29T06:40:34.029Z,95.90
2019-03-29T06:41:33.953Z,89.40
2019-03-29T06:42:33.870Z,86.80
2019-03-29T06:43:33.790Z,80.00
2019-03-29T06:44:33.703Z,81.10
2019-03-29T06:45:46.819Z,81.20
2019-03-29T06:46:33.540Z,91.00
2019-03-29T06:47:33.455Z,80.20
2019-03-29T06:48:33.379Z,82.70
2019-03-29T06:49:33.291Z,83.20
2019-03-29T06:50:33.252Z,73.50
2019-03-29T06:51:33.133Z,79.00
2019-03-29T06:52:33.041Z,80.70
2019-03-29T06:53:32.966Z,80.10
2019-03-29T06:54:32.880Z,79.70
2019-03-29T06:55:32.791Z,85.60
2019-03-29T06:56:32.719Z,76.80
2019-03-29T06:57:32.630Z,73.30
2019-03-29T06:58:32.557Z,76.80
2019-03-29T06:59:32.481Z,66.40
2019-03-29T07:00:32.385Z,68.70
2019-03-29T07:01:32.306Z,72.30
2019-03-29T07:02:32.232Z,75.90
2019-03-29T07:03:32.142Z,82.90
2019-03-29T07:04:32.060Z,77.30
2019-03-29T07:05:31.973Z,75.70
2019-03-29T07:06:31.892Z,72.00
2019-03-29T07:07:31.806Z,70.70
2019-03-29T07:08:31.731Z,74.70
2019-03-29T07:09:31.644Z,72.30
2019-03-29T07:10:31.573Z,68.30
2019-03-29T07:11:31.482Z,61.40
2019-03-29T07:12:31.398Z,66.70
2019-03-29T07:13:31.318Z,72.90
2019-03-29T07:14:31.232Z,70.50
2019-03-29T07:15:31.160Z,67.60
2019-03-29T07:16:31.069Z,71.10
2019-03-29T07:17:30.982Z,66.00
2019-03-29T07:18:30.906Z,65.50
2019-03-29T07:19:30.820Z,71.60
2019-03-29T07:20:30.745Z,68.50
2019-03-29T07:21:30.658Z,65.00
2019-03-29T07:22:30.582Z,73.70
2019-03-29T07:23:30.495Z,69.40
2019-03-29T07:24:30.408Z,62.50
2019-03-29T07:25:30.333Z,62.40
2019-03-29T07:26:30.246Z,65.60
2019-03-29T07:27:38.759Z,66.40
2019-03-29T07:28:30.083Z,62.00
2019-03-29T07:29:30.008Z,61.80
2019-03-29T07:30:29.920Z,66.00
2019-03-29T07:31:29.837Z,68.10
2019-03-29T07:32:29.759Z,65.30
2019-03-29T07:33:29.671Z,65.10
2019-03-29T07:34:29.597Z,56.90
2019-03-29T07:35:29.510Z,59.90
2019-03-29T07:36:29.421Z,57.80
2019-03-29T07:37:29.348Z,64.90
2019-03-29T07:38:29.260Z,62.90
2019-03-29T07:39:29.186Z,58.90
2019-03-29T07:40:29.102Z,59.80
2019-03-29T07:41:32.301Z,58.00
2019-03-29T07:42:28.938Z,55.70
2019-03-29T07:43:28.853Z,53.60
2019-03-29T07:44:28.773Z,57.20
2019-03-29T07:45:28.698Z,57.10
2019-03-29T07:46:28.612Z,55.20
2019-03-29T07:47:28.523Z,52.10
2019-03-29T07:48:28.438Z,53.20
2019-03-29T07:49:28.361Z,53.40
2019-03-29T07:50:28.272Z,57.70
2019-03-29T07:51:28.198Z,57.80
2019-03-29T07:52:28.112Z,51.50
2019-03-29T07:53:28.037Z,54.00
2019-03-29T07:54:27.952Z,55.50
2019-03-29T07:55:27.862Z,53.50
2019-03-29T07:56:27.786Z,48.20
2019-03-29T07:57:27.699Z,50.30
2019-03-29T07:58:27.636Z,56.00
2019-03-29T07:59:27.539Z,52.70
2019-03-29T08:00:27.461Z,48.30
2019-03-29T08:01:27.374Z,45.40
2019-03-29T08:02:28.194Z,47.30
2019-03-29T08:03:27.214Z,47.10
2019-03-29T08:04:27.124Z,51.20
2019-03-29T08:05:27.049Z,51.40
2019-03-29T08:06:26.963Z,48.50
2019-03-29T08:07:27.756Z,46.50
2019-03-29T08:08:32.077Z,48.30
2019-03-29T08:09:27.376Z,45.60
2019-03-29T08:10:30.993Z,44.90
2019-03-29T08:11:27.651Z,46.40
2019-03-29T08:12:26.532Z,47.00
2019-03-29T08:13:26.390Z,44.60
2019-03-29T08:14:26.315Z,48.90
2019-03-29T08:15:26.225Z,47.00
2019-03-29T08:16:26.151Z,46.40
2019-03-29T08:17:26.064Z,49.80
2019-03-29T08:18:25.977Z,41.70
2019-03-29T08:19:25.901Z,41.70
2019-03-29T08:20:40.312Z,44.20
2019-03-29T08:21:25.740Z,44.70
2019-03-29T08:22:25.651Z,43.60
2019-03-29T08:23:28.646Z,45.40
2019-03-29T08:24:25.489Z,42.90
2019-03-29T08:25:25.415Z,46.10
2019-03-29T08:26:25.404Z,42.40
2019-03-29T08:27:25.240Z,46.30
2019-03-29T08:28:25.165Z,46.50
2019-03-29T08:29:25.079Z,46.50
2019-03-29T08:30:25.003Z,43.00
2019-03-29T08:31:24.916Z,45.90
2019-03-29T08:32:24.829Z,43.50
2019-03-29T08:33:24.753Z,40.20
2019-03-29T08:34:24.678Z,42.20
2019-03-29T08:35:24.591Z,42.60
2019-03-29T08:36:24.505Z,40.70
2019-03-29T08:37:24.428Z,40.20
2019-03-29T08:38:24.341Z,42.50
2019-03-29T08:39:28.301Z,40.00
2019-03-29T08:40:24.184Z,45.00
2019-03-29T08:41:24.104Z,41.30
2019-03-29T08:42:24.018Z,38.70
2019-03-29T08:43:23.929Z,41.60
2019-03-29T08:44:23.854Z,44.30
2019-03-29T08:45:23.768Z,39.40
2019-03-29T08:46:23.693Z,39.70
2019-03-29T08:47:23.605Z,40.30
2019-03-29T08:48:23.530Z,38.60
2019-03-29T08:49:23.444Z,40.60
2019-03-29T08:50:23.368Z,41.10
2019-03-29T08:51:23.280Z,40.30
2019-03-29T08:52:23.197Z,39.50
2019-03-29T08:53:23.119Z,35.70
2019-03-29T08:54:23.031Z,41.30
2019-03-29T08:55:22.958Z,39.20
2019-03-29T08:56:22.868Z,36.50
2019-03-29T08:57:22.794Z,37.30
2019-03-29T08:58:22.706Z,34.80
2019-03-29T08:59:22.630Z,37.00
2019-03-29T09:00:22.547Z,37.50
2019-03-29T09:01:22.469Z,37.70
2019-03-29T09:02:24.899Z,34.00
2019-03-29T09:03:22.296Z,38.30
2019-03-29T09:04:22.219Z,33.40
2019-03-29T09:05:22.131Z,32.80
2019-03-29T09:06:22.069Z,31.70
2019-03-29T09:07:21.970Z,35.90
2019-03-29T09:08:21.898Z,36.60
2019-03-29T09:09:21.809Z,31.60
2019-03-29T09:10:21.732Z,32.40
2019-03-29T09:11:21.645Z,33.40
2019-03-29T09:12:21.570Z,35.30
2019-03-29T09:13:21.482Z,34.10
2019-03-29T09:14:21.407Z,31.60
2019-03-29T09:15:21.320Z,32.40
2019-03-29T09:16:21.238Z,31.90
2019-03-29T09:17:21.157Z,32.30
2019-03-29T09:18:21.071Z,30.90
2019-03-29T09:19:20.996Z,31.60
2019-03-29T09:20:20.908Z,30.50
2019-03-29T09:21:20.833Z,29.30
2019-03-29T09:22:20.746Z,29.90
2019-03-29T09:23:20.676Z,28.90
2019-03-29T09:24:22.389Z,28.40
2019-03-29T09:25:21.156Z,25.40
2019-03-29T09:26:20.422Z,26.10
2019-03-29T09:27:20.390Z,27.50
2019-03-29T09:28:20.259Z,26.10
2019-03-29T09:29:20.184Z,26.60
2019-03-29T09:30:20.104Z,24.30
2019-03-29T09:31:20.011Z,29.20
2019-03-29T09:32:19.948Z,24.10
2019-03-29T09:33:19.848Z,24.50
2019-03-29T09:34:19.780Z,27.30
2019-03-29T09:35:19.685Z,26.80
2019-03-29T09:36:19.611Z,25.80
2019-03-29T09:37:19.525Z,28.60
2019-03-29T09:38:19.449Z,23.80
2019-03-29T09:39:19.360Z,24.00
2019-03-29T09:40:19.290Z,22.80
2019-03-29T09:41:19.199Z,23.10
2019-03-29T09:42:28.759Z,25.30
2019-03-29T09:43:19.049Z,24.10
2019-03-29T09:44:18.960Z,23.60
2019-03-29T09:45:18.881Z,29.70
2019-03-29T09:46:18.799Z,23.80
2019-03-29T09:47:18.712Z,22.30
2019-03-29T09:48:18.649Z,23.10
2019-03-29T09:49:18.549Z,22.90
2019-03-29T09:50:18.475Z,22.80
2019-03-29T09:51:18.386Z,21.70
2019-03-29T09:52:18.312Z,23.00
2019-03-29T09:53:18.224Z,21.10
2019-03-29T09:54:20.439Z,23.60
2019-03-29T09:55:19.208Z,20.40
2019-03-29T09:56:17.987Z,23.30
2019-03-29T09:57:17.900Z,19.40
2019-03-29T09:58:17.826Z,17.70
2019-03-29T09:59:17.741Z,21.20
2019-03-29T10:00:22.755Z,24.40
2019-03-29T10:01:20.628Z,18.60
2019-03-29T10:02:17.502Z,18.60
2019-03-29T10:03:17.414Z,20.20
2019-03-29T10:04:17.338Z,17.80
2019-03-29T10:05:19.832Z,18.80
2019-03-29T10:06:17.176Z,18.10
2019-03-29T10:07:17.090Z,19.50
2019-03-29T10:08:17.018Z,19.50
2019-03-29T10:09:16.927Z,17.80
2019-03-29T10:10:16.852Z,18.20
2019-03-29T10:11:16.765Z,19.80
2019-03-29T10:12:16.689Z,17.20
2019-03-29T10:13:16.651Z,16.80
2019-03-29T10:14:16.527Z,16.00
2019-03-29T10:15:16.439Z,15.40
2019-03-29T10:16:16.366Z,15.30
2019-03-29T10:17:16.278Z,16.50
2019-03-29T10:18:16.202Z,14.90
2019-03-29T10:19:16.117Z,14.70
2019-03-29T10:20:16.040Z,15.50
2019-03-29T10:21:17.448Z,16.60
2019-03-29T10:22:15.880Z,16.70
2019-03-29T10:23:15.790Z,17.10
2019-03-29T10:24:15.717Z,15.70
2019-03-29T10:25:19.840Z,16.30
2019-03-29T10:26:15.554Z,13.10
2019-03-29T10:27:18.735Z,16.40
2019-03-29T10:28:15.390Z,16.30
2019-03-29T10:29:15.304Z,14.70
2019-03-29T10:30:15.228Z,14.30
2019-03-29T10:31:15.150Z,14.30
2019-03-29T10:32:15.067Z,11.10
2019-03-29T10:33:14.995Z,14.50
2019-03-29T10:34:14.904Z,13.00
2019-03-29T10:35:14.833Z,12.10
2019-03-29T10:36:14.741Z,12.20
2019-03-29T10:37:14.666Z,14.00
2019-03-29T10:38:17.808Z,11.60
2019-03-29T10:39:14.509Z,12.10
2019-03-29T10:40:14.430Z,10.30
2019-03-29T10:41:14.355Z,8.20
2019-03-29T10:42:14.270Z,11.30
2019-03-29T10:43:14.187Z,9.30
2019-03-29T10:44:14.109Z,8.50
2019-03-29T10:45:14.019Z,6.90
2019-03-29T10:46:13.956Z,8.40
2019-03-29T10:47:13.868Z,7.60
2019-03-29T10:48:13.784Z,9.00
2019-03-29T10:49:13.707Z,7.70
2019-03-29T10:50:13.643Z,8.90
2019-03-29T10:51:13.546Z,7.60
2019-03-29T10:52:13.474Z,8.50
2019-03-29T10:53:13.382Z,8.80
2019-03-29T10:54:13.309Z,8.50
2019-03-29T10:55:13.220Z,8.20
2019-03-29T10:56:13.143Z,8.40
2019-03-29T10:57:13.069Z,8.00
2019-03-29T10:58:12.985Z,7.40
2019-03-29T10:59:26.298Z,7.80
2019-03-29T11:00:12.821Z,10.40
2019-03-29T11:01:12.746Z,9.00
2019-03-29T11:02:12.671Z,4.70
2019-03-29T11:03:12.583Z,4.40
2019-03-29T11:04:12.508Z,4.60
2019-03-29T11:05:12.433Z,4.80
2019-03-29T11:06:12.345Z,3.40
2019-03-29T11:07:12.269Z,3.00
2019-03-29T11:08:12.437Z,3.70
2019-03-29T11:09:12.108Z,3.20
2019-03-29T11:10:12.034Z,3.70
2019-03-29T11:11:11.945Z,3.20
2019-03-29T11:12:11.872Z,3.20
2019-03-29T11:13:13.683Z,2.90
2019-03-29T11:14:11.711Z,2.40
2019-03-29T11:15:11.634Z,3.10
2019-03-29T11:16:11.549Z,3.60
2019-03-29T11:17:11.474Z,3.00
2019-03-29T11:18:11.396Z,2.90
2019-03-29T11:19:11.310Z,3.10
2019-03-29T11:20:11.234Z,3.10
2019-03-29T11:21:11.160Z,3.30
2019-03-29T11:22:11.085Z,3.80
2019-03-29T11:23:11.003Z,3.30
2019-03-29T11:24:10.915Z,3.70
2019-03-29T11:25:10.835Z,4.80
2019-03-29T11:26:10.766Z,4.10
2019-03-29T11:27:10.675Z,4.00
2019-03-29T11:28:10.600Z,3.80
2019-03-29T11:29:10.511Z,4.00
2019-03-29T11:30:10.436Z,3.40
2019-03-29T11:31:10.363Z,3.90
2019-03-29T11:32:10.273Z,4.60
2019-03-29T11:33:10.198Z,3.40
2019-03-29T11:34:10.123Z,5.00
2019-03-29T11:35:10.041Z,4.20
2019-03-29T11:36:09.964Z,3.80
2019-03-29T11:37:09.873Z,4.40
2019-03-29T11:38:09.801Z,4.10
2019-03-29T11:39:09.712Z,3.80
2019-03-29T11:40:09.648Z,5.40
2019-03-29T11:41:09.564Z,3.80
2019-03-29T11:42:09.473Z,4.30
2019-03-29T11:43:09.412Z,4.00
2019-03-29T11:44:09.313Z,4.10
2019-03-29T11:45:09.237Z,5.00
2019-03-29T11:46:09.152Z,3.70
2019-03-29T11:47:09.074Z,5.20
2019-03-29T11:48:09.717Z,3.80
2019-03-29T11:49:08.914Z,3.90
2019-03-29T11:50:08.841Z,4.60
2019-03-29T11:51:19.095Z,3.50
2019-03-29T11:52:08.674Z,4.00
2019-03-29T11:53:08.603Z,5.90
2019-03-29T11:54:08.513Z,5.00
2019-03-29T11:55:08.439Z,3.50
2019-03-29T11:56:08.351Z,3.80
2019-03-29T11:57:08.275Z,5.70
2019-03-29T11:58:08.200Z,3.70
2019-03-29T11:59:08.114Z,4.20
2019-03-29T12:00:08.039Z,4.00
2019-03-29T12:01:07.968Z,3.40
2019-03-29T12:02:07.876Z,4.10
2019-03-29T12:03:09.392Z,5.40
2019-03-29T12:04:07.714Z,4.00
2019-03-29T12:05:07.640Z,4.20
2019-03-29T12:06:07.566Z,3.90
2019-03-29T12:07:07.476Z,3.80
2019-03-29T12:08:07.400Z,5.30
2019-03-29T12:09:07.316Z,4.20
2019-03-29T12:10:07.240Z,5.10
2019-03-29T12:11:07.152Z,3.70
2019-03-29T12:12:07.077Z,4.80
2019-03-29T12:13:07.064Z,5.50
2019-03-29T12:14:06.917Z,4.30
2019-03-29T12:15:06.842Z,4.60
2019-03-29T12:16:06.752Z,4.30
2019-03-29T12:17:06.698Z,4.30
2019-03-29T12:18:06.602Z,4.20
2019-03-29T12:19:06.517Z,4.40
2019-03-29T12:20:06.442Z,3.00
2019-03-29T12:21:06.353Z,4.40
2019-03-29T12:22:06.280Z,4.60
2019-03-29T12:23:06.192Z,3.30
2019-03-29T12:24:06.120Z,3.50
2019-03-29T12:25:06.045Z,4.80
2019-03-29T12:26:05.953Z,4.90
2019-03-29T12:27:05.880Z,3.70
2019-03-29T12:28:05.793Z,4.00
2019-03-29T12:29:05.723Z,3.40
2019-03-29T12:30:05.693Z,4.00
2019-03-29T12:31:05.555Z,3.60
2019-03-29T12:32:05.479Z,2.90
2019-03-29T12:33:05.393Z,4.60
2019-03-29T12:34:05.319Z,3.30
2019-03-29T12:35:05.243Z,3.10
2019-03-29T12:36:05.156Z,3.30
2019-03-29T12:37:05.080Z,3.50
2019-03-29T12:38:04.994Z,3.40
2019-03-29T12:39:04.918Z,3.70
2019-03-29T12:40:04.844Z,4.40
2019-03-29T12:41:04.756Z,4.60
2019-03-29T12:42:04.684Z,4.10
2019-03-29T12:43:04.594Z,3.80
2019-03-29T12:44:04.523Z,3.80
2019-03-29T12:45:04.444Z,4.30
2019-03-29T12:46:04.355Z,3.70
2019-03-29T12:47:04.295Z,4.10
2019-03-29T12:48:04.194Z,4.50